sensor_id;sensor_type;location;lat;lon;timestamp;temperature;humidity
74968;SHT30;63523;51.880;12.630;2023-12-07T00:01:13;2.25;88.17
74968;SHT30;63523;51.880;12.630;2023-12-07T00:03:38;2.24;88.03
74968;SHT30;63523;51.880;12.630;2023-12-07T00:06:04;2.24;87.93
74968;SHT30;63523;51.880;12.630;2023-12-07T00:08:29;2.25;87.72
74968;SHT30;63523;51.880;12.630;2023-12-07T00:10:54;2.24;87.59
74968;SHT30;63523;51.880;12.630;2023-12-07T00:13:20;2.23;87.72
74968;SHT30;63523;51.880;12.630;2023-12-07T00:15:45;2.25;87.74
74968;SHT30;63523;51.880;12.630;2023-12-07T00:18:10;2.24;87.65
74968;SHT30;63523;51.880;12.630;2023-12-07T00:20:36;2.24;87.66
74968;SHT30;63523;51.880;12.630;2023-12-07T00:23:01;2.31;87.70
74968;SHT30;63523;51.880;12.630;2023-12-07T00:25:26;2.34;87.44
74968;SHT30;63523;51.880;12.630;2023-12-07T00:27:51;2.42;87.24
74968;SHT30;63523;51.880;12.630;2023-12-07T00:30:17;2.37;86.46
74968;SHT30;63523;51.880;12.630;2023-12-07T00:32:43;2.37;86.83
74968;SHT30;63523;51.880;12.630;2023-12-07T00:35:09;2.34;86.77
74968;SHT30;63523;51.880;12.630;2023-12-07T00:37:35;2.34;87.18
74968;SHT30;63523;51.880;12.630;2023-12-07T00:40:00;2.38;86.94
74968;SHT30;63523;51.880;12.630;2023-12-07T00:42:27;2.41;86.86
74968;SHT30;63523;51.880;12.630;2023-12-07T00:44:52;2.38;86.80
74968;SHT30;63523;51.880;12.630;2023-12-07T00:47:17;2.45;86.99
74968;SHT30;63523;51.880;12.630;2023-12-07T00:49:43;2.44;86.55
74968;SHT30;63523;51.880;12.630;2023-12-07T00:52:08;2.44;86.24
74968;SHT30;63523;51.880;12.630;2023-12-07T00:54:34;2.40;86.29
74968;SHT30;63523;51.880;12.630;2023-12-07T00:56:59;2.40;86.82
74968;SHT30;63523;51.880;12.630;2023-12-07T00:59:24;2.53;86.89
74968;SHT30;63523;51.880;12.630;2023-12-07T01:01:50;2.53;85.99
74968;SHT30;63523;51.880;12.630;2023-12-07T01:04:15;2.56;85.95
74968;SHT30;63523;51.880;12.630;2023-12-07T01:06:41;2.59;86.43
74968;SHT30;63523;51.880;12.630;2023-12-07T01:09:08;2.61;85.56
74968;SHT30;63523;51.880;12.630;2023-12-07T01:11:38;2.51;85.40
74968;SHT30;63523;51.880;12.630;2023-12-07T01:14:03;2.49;85.81
74968;SHT30;63523;51.880;12.630;2023-12-07T01:16:28;2.46;85.86
74968;SHT30;63523;51.880;12.630;2023-12-07T01:18:53;2.52;86.49
74968;SHT30;63523;51.880;12.630;2023-12-07T01:21:19;2.48;86.27
74968;SHT30;63523;51.880;12.630;2023-12-07T01:23:44;2.48;86.70
74968;SHT30;63523;51.880;12.630;2023-12-07T01:26:10;2.48;86.24
74968;SHT30;63523;51.880;12.630;2023-12-07T01:28:35;2.51;86.54
74968;SHT30;63523;51.880;12.630;2023-12-07T01:31:00;2.49;86.33
74968;SHT30;63523;51.880;12.630;2023-12-07T01:33:26;2.55;86.85
74968;SHT30;63523;51.880;12.630;2023-12-07T01:35:51;2.56;86.46
74968;SHT30;63523;51.880;12.630;2023-12-07T01:38:16;2.71;85.79
74968;SHT30;63523;51.880;12.630;2023-12-07T01:40:42;2.68;85.37
74968;SHT30;63523;51.880;12.630;2023-12-07T01:43:07;2.73;85.77
74968;SHT30;63523;51.880;12.630;2023-12-07T01:45:32;2.63;85.25
74968;SHT30;63523;51.880;12.630;2023-12-07T01:47:58;2.68;86.32
74968;SHT30;63523;51.880;12.630;2023-12-07T01:50:25;2.62;85.35
74968;SHT30;63523;51.880;12.630;2023-12-07T01:52:54;2.59;85.96
74968;SHT30;63523;51.880;12.630;2023-12-07T01:55:22;2.68;85.89
74968;SHT30;63523;51.880;12.630;2023-12-07T01:57:48;2.69;84.92
74968;SHT30;63523;51.880;12.630;2023-12-07T02:00:14;2.71;86.29
74968;SHT30;63523;51.880;12.630;2023-12-07T02:02:40;2.63;85.53
74968;SHT30;63523;51.880;12.630;2023-12-07T02:05:06;2.61;85.83
74968;SHT30;63523;51.880;12.630;2023-12-07T02:07:33;2.55;86.15
74968;SHT30;63523;51.880;12.630;2023-12-07T02:09:59;2.58;86.48
74968;SHT30;63523;51.880;12.630;2023-12-07T02:12:24;2.61;86.74
74968;SHT30;63523;51.880;12.630;2023-12-07T02:14:51;2.55;86.42
74968;SHT30;63523;51.880;12.630;2023-12-07T02:20:29;2.49;86.84
74968;SHT30;63523;51.880;12.630;2023-12-07T02:23:00;2.52;87.18
74968;SHT30;63523;51.880;12.630;2023-12-07T02:25:32;2.56;86.64
74968;SHT30;63523;51.880;12.630;2023-12-07T02:28:00;2.53;86.91
74968;SHT30;63523;51.880;12.630;2023-12-07T02:30:25;2.58;87.06
74968;SHT30;63523;51.880;12.630;2023-12-07T02:32:51;2.62;86.90
74968;SHT30;63523;51.880;12.630;2023-12-07T02:35:16;2.63;86.80
74968;SHT30;63523;51.880;12.630;2023-12-07T02:37:48;2.61;86.34
74968;SHT30;63523;51.880;12.630;2023-12-07T02:40:19;2.59;86.84
74968;SHT30;63523;51.880;12.630;2023-12-07T02:42:46;2.61;86.99
74968;SHT30;63523;51.880;12.630;2023-12-07T02:45:12;2.63;86.68
74968;SHT30;63523;51.880;12.630;2023-12-07T02:47:38;2.56;86.67
74968;SHT30;63523;51.880;12.630;2023-12-07T02:50:05;2.52;86.95
74968;SHT30;63523;51.880;12.630;2023-12-07T02:52:31;2.49;87.29
74968;SHT30;63523;51.880;12.630;2023-12-07T02:54:57;2.48;87.62
74968;SHT30;63523;51.880;12.630;2023-12-07T02:57:22;2.46;87.85
74968;SHT30;63523;51.880;12.630;2023-12-07T02:59:47;2.45;87.95
74968;SHT30;63523;51.880;12.630;2023-12-07T03:02:13;2.49;87.95
74968;SHT30;63523;51.880;12.630;2023-12-07T03:04:38;2.48;88.04
74968;SHT30;63523;51.880;12.630;2023-12-07T03:07:03;2.51;88.27
74968;SHT30;63523;51.880;12.630;2023-12-07T03:09:29;2.52;87.93
74968;SHT30;63523;51.880;12.630;2023-12-07T03:11:54;2.53;88.03
74968;SHT30;63523;51.880;12.630;2023-12-07T03:14:19;2.55;87.89
74968;SHT30;63523;51.880;12.630;2023-12-07T03:16:45;2.53;87.88
74968;SHT30;63523;51.880;12.630;2023-12-07T03:19:10;2.53;88.08
74968;SHT30;63523;51.880;12.630;2023-12-07T03:21:39;2.56;88.07
74968;SHT30;63523;51.880;12.630;2023-12-07T03:24:04;2.53;88.19
74968;SHT30;63523;51.880;12.630;2023-12-07T03:26:30;2.53;88.28
74968;SHT30;63523;51.880;12.630;2023-12-07T03:28:55;2.52;88.27
74968;SHT30;63523;51.880;12.630;2023-12-07T03:31:20;2.53;88.42
74968;SHT30;63523;51.880;12.630;2023-12-07T03:33:46;2.58;88.51
74968;SHT30;63523;51.880;12.630;2023-12-07T03:36:11;2.58;88.34
74968;SHT30;63523;51.880;12.630;2023-12-07T03:38:37;2.59;88.33
74968;SHT30;63523;51.880;12.630;2023-12-07T03:41:02;2.56;88.21
74968;SHT30;63523;51.880;12.630;2023-12-07T03:43:29;2.55;88.46
74968;SHT30;63523;51.880;12.630;2023-12-07T03:45:54;2.56;88.48
74968;SHT30;63523;51.880;12.630;2023-12-07T03:48:20;2.55;88.48
74968;SHT30;63523;51.880;12.630;2023-12-07T03:50:45;2.55;88.57
74968;SHT30;63523;51.880;12.630;2023-12-07T03:53:10;2.53;88.52
74968;SHT30;63523;51.880;12.630;2023-12-07T03:55:36;2.58;88.30
74968;SHT30;63523;51.880;12.630;2023-12-07T03:58:02;2.53;88.40
74968;SHT30;63523;51.880;12.630;2023-12-07T04:00:27;2.56;88.60
74968;SHT30;63523;51.880;12.630;2023-12-07T04:02:52;2.58;88.50
74968;SHT30;63523;51.880;12.630;2023-12-07T04:05:18;2.59;88.32
74968;SHT30;63523;51.880;12.630;2023-12-07T04:07:43;2.59;88.35
74968;SHT30;63523;51.880;12.630;2023-12-07T04:10:09;2.59;88.45
74968;SHT30;63523;51.880;12.630;2023-12-07T04:12:34;2.59;88.64
74968;SHT30;63523;51.880;12.630;2023-12-07T04:14:59;2.58;88.74
74968;SHT30;63523;51.880;12.630;2023-12-07T04:17:25;2.58;88.69
74968;SHT30;63523;51.880;12.630;2023-12-07T04:19:50;2.63;88.76
74968;SHT30;63523;51.880;12.630;2023-12-07T04:22:16;2.63;88.64
74968;SHT30;63523;51.880;12.630;2023-12-07T04:24:41;2.62;88.65
74968;SHT30;63523;51.880;12.630;2023-12-07T04:27:06;2.61;89.02
74968;SHT30;63523;51.880;12.630;2023-12-07T04:29:32;2.62;89.07
74968;SHT30;63523;51.880;12.630;2023-12-07T04:31:57;2.62;88.91
74968;SHT30;63523;51.880;12.630;2023-12-07T04:34:22;2.66;88.98
74968;SHT30;63523;51.880;12.630;2023-12-07T04:36:49;2.73;88.85
74968;SHT30;63523;51.880;12.630;2023-12-07T04:39:14;2.71;88.49
74968;SHT30;63523;51.880;12.630;2023-12-07T04:41:40;2.75;88.47
74968;SHT30;63523;51.880;12.630;2023-12-07T04:44:05;2.71;88.14
74968;SHT30;63523;51.880;12.630;2023-12-07T04:46:30;2.75;88.35
74968;SHT30;63523;51.880;12.630;2023-12-07T04:48:56;2.75;88.38
74968;SHT30;63523;51.880;12.630;2023-12-07T04:51:21;2.82;87.80
74968;SHT30;63523;51.880;12.630;2023-12-07T04:53:47;2.80;87.93
74968;SHT30;63523;51.880;12.630;2023-12-07T04:56:12;2.79;87.87
74968;SHT30;63523;51.880;12.630;2023-12-07T04:58:38;2.79;88.07
74968;SHT30;63523;51.880;12.630;2023-12-07T05:01:04;2.76;88.14
74968;SHT30;63523;51.880;12.630;2023-12-07T05:03:29;2.76;88.20
74968;SHT30;63523;51.880;12.630;2023-12-07T05:05:54;2.78;88.11
74968;SHT30;63523;51.880;12.630;2023-12-07T05:08:20;2.72;88.27
74968;SHT30;63523;51.880;12.630;2023-12-07T05:10:45;2.78;87.93
74968;SHT30;63523;51.880;12.630;2023-12-07T05:13:10;2.78;88.00
74968;SHT30;63523;51.880;12.630;2023-12-07T05:15:36;2.76;88.10
74968;SHT30;63523;51.880;12.630;2023-12-07T05:18:01;2.76;87.98
74968;SHT30;63523;51.880;12.630;2023-12-07T05:20:27;2.75;88.18
74968;SHT30;63523;51.880;12.630;2023-12-07T05:22:54;2.73;88.11
74968;SHT30;63523;51.880;12.630;2023-12-07T05:25:19;2.78;88.03
74968;SHT30;63523;51.880;12.630;2023-12-07T05:27:45;2.76;87.69
74968;SHT30;63523;51.880;12.630;2023-12-07T05:30:10;2.76;87.71
74968;SHT30;63523;51.880;12.630;2023-12-07T05:32:36;2.75;87.56
74968;SHT30;63523;51.880;12.630;2023-12-07T05:35:01;2.72;87.88
74968;SHT30;63523;51.880;12.630;2023-12-07T05:37:27;2.68;88.06
74968;SHT30;63523;51.880;12.630;2023-12-07T05:42:21;2.66;88.31
74968;SHT30;63523;51.880;12.630;2023-12-07T05:44:47;2.65;88.22
74968;SHT30;63523;51.880;12.630;2023-12-07T05:47:12;2.65;88.38
74968;SHT30;63523;51.880;12.630;2023-12-07T05:49:37;2.68;88.27
74968;SHT30;63523;51.880;12.630;2023-12-07T05:52:03;2.73;87.80
74968;SHT30;63523;51.880;12.630;2023-12-07T05:54:28;2.71;87.89
74968;SHT30;63523;51.880;12.630;2023-12-07T05:56:54;2.66;88.14
74968;SHT30;63523;51.880;12.630;2023-12-07T05:59:19;2.65;88.24
74968;SHT30;63523;51.880;12.630;2023-12-07T06:01:44;2.66;88.04
74968;SHT30;63523;51.880;12.630;2023-12-07T06:04:10;2.72;88.32
74968;SHT30;63523;51.880;12.630;2023-12-07T06:06:37;2.69;87.98
74968;SHT30;63523;51.880;12.630;2023-12-07T06:09:02;2.66;88.19
74968;SHT30;63523;51.880;12.630;2023-12-07T06:11:28;2.66;88.06
74968;SHT30;63523;51.880;12.630;2023-12-07T06:13:53;2.65;88.19
74968;SHT30;63523;51.880;12.630;2023-12-07T06:16:20;2.66;88.27
74968;SHT30;63523;51.880;12.630;2023-12-07T06:18:45;2.65;88.41
74968;SHT30;63523;51.880;12.630;2023-12-07T06:21:35;2.66;88.09
74968;SHT30;63523;51.880;12.630;2023-12-07T06:24:01;2.65;88.21
74968;SHT30;63523;51.880;12.630;2023-12-07T06:26:26;2.63;88.35
74968;SHT30;63523;51.880;12.630;2023-12-07T06:28:51;2.66;88.34
74968;SHT30;63523;51.880;12.630;2023-12-07T06:31:17;2.63;88.25
74968;SHT30;63523;51.880;12.630;2023-12-07T06:33:46;2.73;88.28
74968;SHT30;63523;51.880;12.630;2023-12-07T06:36:18;2.69;87.99
74968;SHT30;63523;51.880;12.630;2023-12-07T06:38:43;2.69;88.15
74968;SHT30;63523;51.880;12.630;2023-12-07T06:41:08;2.68;88.34
74968;SHT30;63523;51.880;12.630;2023-12-07T06:43:34;2.73;87.98
74968;SHT30;63523;51.880;12.630;2023-12-07T06:45:59;2.71;87.90
74968;SHT30;63523;51.880;12.630;2023-12-07T06:48:24;2.69;88.12
74968;SHT30;63523;51.880;12.630;2023-12-07T06:50:50;2.66;88.20
74968;SHT30;63523;51.880;12.630;2023-12-07T06:53:15;2.63;88.35
74968;SHT30;63523;51.880;12.630;2023-12-07T06:55:41;2.68;88.47
74968;SHT30;63523;51.880;12.630;2023-12-07T06:58:08;2.69;88.56
74968;SHT30;63523;51.880;12.630;2023-12-07T07:00:36;2.69;88.37
74968;SHT30;63523;51.880;12.630;2023-12-07T07:03:01;2.68;88.32
74968;SHT30;63523;51.880;12.630;2023-12-07T07:05:27;2.71;88.36
74968;SHT30;63523;51.880;12.630;2023-12-07T07:07:52;2.68;88.42
74968;SHT30;63523;51.880;12.630;2023-12-07T07:10:18;2.66;88.52
74968;SHT30;63523;51.880;12.630;2023-12-07T07:12:43;2.68;88.75
74968;SHT30;63523;51.880;12.630;2023-12-07T07:15:09;2.66;88.66
74968;SHT30;63523;51.880;12.630;2023-12-07T07:17:34;2.65;88.65
74968;SHT30;63523;51.880;12.630;2023-12-07T07:20:00;2.69;88.82
74968;SHT30;63523;51.880;12.630;2023-12-07T07:22:25;2.71;88.78
74968;SHT30;63523;51.880;12.630;2023-12-07T07:24:50;2.73;88.84
74968;SHT30;63523;51.880;12.630;2023-12-07T07:27:16;2.75;88.53
74968;SHT30;63523;51.880;12.630;2023-12-07T07:29:41;2.72;88.48
74968;SHT30;63523;51.880;12.630;2023-12-07T07:32:06;2.72;88.43
74968;SHT30;63523;51.880;12.630;2023-12-07T07:38:31;2.69;88.60
74968;SHT30;63523;51.880;12.630;2023-12-07T07:40:56;2.72;88.83
74968;SHT30;63523;51.880;12.630;2023-12-07T07:43:22;2.76;88.73
74968;SHT30;63523;51.880;12.630;2023-12-07T07:45:47;2.75;88.56
74968;SHT30;63523;51.880;12.630;2023-12-07T07:48:13;2.79;88.61
74968;SHT30;63523;51.880;12.630;2023-12-07T07:50:38;2.78;88.44
74968;SHT30;63523;51.880;12.630;2023-12-07T07:53:03;2.79;88.53
74968;SHT30;63523;51.880;12.630;2023-12-07T07:55:29;2.82;88.43
74968;SHT30;63523;51.880;12.630;2023-12-07T07:57:54;2.80;88.40
74968;SHT30;63523;51.880;12.630;2023-12-07T08:00:20;2.80;88.39
74968;SHT30;63523;51.880;12.630;2023-12-07T08:02:46;2.79;88.46
74968;SHT30;63523;51.880;12.630;2023-12-07T08:05:11;2.83;88.58
74968;SHT30;63523;51.880;12.630;2023-12-07T08:07:37;2.80;88.46
74968;SHT30;63523;51.880;12.630;2023-12-07T08:10:03;2.93;87.70
74968;SHT30;63523;51.880;12.630;2023-12-07T08:12:28;2.95;87.51
74968;SHT30;63523;51.880;12.630;2023-12-07T08:14:54;2.89;87.52
74968;SHT30;63523;51.880;12.630;2023-12-07T08:17:19;2.86;87.94
74968;SHT30;63523;51.880;12.630;2023-12-07T08:19:44;2.82;88.04
74968;SHT30;63523;51.880;12.630;2023-12-07T08:22:10;2.86;88.21
74968;SHT30;63523;51.880;12.630;2023-12-07T08:24:35;2.86;88.10
74968;SHT30;63523;51.880;12.630;2023-12-07T08:27:02;2.85;88.27
74968;SHT30;63523;51.880;12.630;2023-12-07T08:29:28;2.85;88.17
74968;SHT30;63523;51.880;12.630;2023-12-07T08:31:54;2.92;88.02
74968;SHT30;63523;51.880;12.630;2023-12-07T08:34:19;2.90;88.30
74968;SHT30;63523;51.880;12.630;2023-12-07T08:36:44;2.95;88.38
74968;SHT30;63523;51.880;12.630;2023-12-07T08:39:10;2.92;88.26
74968;SHT30;63523;51.880;12.630;2023-12-07T08:41:35;2.96;88.41
74968;SHT30;63523;51.880;12.630;2023-12-07T08:44:02;2.96;88.39
74968;SHT30;63523;51.880;12.630;2023-12-07T08:46:27;2.99;88.30
74968;SHT30;63523;51.880;12.630;2023-12-07T08:48:52;2.99;88.19
74968;SHT30;63523;51.880;12.630;2023-12-07T08:51:18;3.06;87.81
74968;SHT30;63523;51.880;12.630;2023-12-07T08:53:44;3.03;87.84
74968;SHT30;63523;51.880;12.630;2023-12-07T08:56:10;3.00;87.93
74968;SHT30;63523;51.880;12.630;2023-12-07T08:58:35;3.03;88.02
74968;SHT30;63523;51.880;12.630;2023-12-07T09:01:00;3.00;88.03
74968;SHT30;63523;51.880;12.630;2023-12-07T09:03:26;3.04;88.07
74968;SHT30;63523;51.880;12.630;2023-12-07T09:05:56;3.03;87.85
74968;SHT30;63523;51.880;12.630;2023-12-07T09:08:22;3.04;88.14
74968;SHT30;63523;51.880;12.630;2023-12-07T09:10:47;3.06;88.02
74968;SHT30;63523;51.880;12.630;2023-12-07T09:13:15;3.11;88.07
74968;SHT30;63523;51.880;12.630;2023-12-07T09:15:40;3.15;88.15
74968;SHT30;63523;51.880;12.630;2023-12-07T09:18:05;3.20;88.20
74968;SHT30;63523;51.880;12.630;2023-12-07T09:20:31;3.18;87.67
74968;SHT30;63523;51.880;12.630;2023-12-07T09:22:56;3.23;87.69
74968;SHT30;63523;51.880;12.630;2023-12-07T09:25:22;3.23;87.50
74968;SHT30;63523;51.880;12.630;2023-12-07T09:27:47;3.23;87.46
74968;SHT30;63523;51.880;12.630;2023-12-07T09:30:13;3.21;87.61
74968;SHT30;63523;51.880;12.630;2023-12-07T09:32:41;3.20;87.61
74968;SHT30;63523;51.880;12.630;2023-12-07T09:35:08;3.23;87.63
74968;SHT30;63523;51.880;12.630;2023-12-07T09:37:44;3.25;87.51
74968;SHT30;63523;51.880;12.630;2023-12-07T09:40:20;3.25;87.61
74968;SHT30;63523;51.880;12.630;2023-12-07T09:42:46;3.27;87.49
74968;SHT30;63523;51.880;12.630;2023-12-07T09:45:12;3.27;87.54
74968;SHT30;63523;51.880;12.630;2023-12-07T09:47:39;3.25;87.34
74968;SHT30;63523;51.880;12.630;2023-12-07T09:50:06;3.23;87.38
74968;SHT30;63523;51.880;12.630;2023-12-07T09:52:32;3.24;87.59
74968;SHT30;63523;51.880;12.630;2023-12-07T09:54:57;3.21;87.38
74968;SHT30;63523;51.880;12.630;2023-12-07T09:57:23;3.25;87.70
74968;SHT30;63523;51.880;12.630;2023-12-07T09:59:49;3.28;87.00
74968;SHT30;63523;51.880;12.630;2023-12-07T10:02:14;3.27;87.16
74968;SHT30;63523;51.880;12.630;2023-12-07T10:04:39;3.24;87.41
74968;SHT30;63523;51.880;12.630;2023-12-07T10:07:05;3.24;87.55
74968;SHT30;63523;51.880;12.630;2023-12-07T10:09:34;3.28;87.82
74968;SHT30;63523;51.880;12.630;2023-12-07T10:12:06;3.27;87.67
74968;SHT30;63523;51.880;12.630;2023-12-07T10:14:32;3.27;87.64
74968;SHT30;63523;51.880;12.630;2023-12-07T10:16:59;3.31;87.87
74968;SHT30;63523;51.880;12.630;2023-12-07T10:19:29;3.36;87.85
74968;SHT30;63523;51.880;12.630;2023-12-07T10:21:54;3.31;87.70
74968;SHT30;63523;51.880;12.630;2023-12-07T10:24:21;3.34;87.69
74968;SHT30;63523;51.880;12.630;2023-12-07T10:26:48;3.35;87.64
74968;SHT30;63523;51.880;12.630;2023-12-07T10:29:14;3.34;87.79
74968;SHT30;63523;51.880;12.630;2023-12-07T10:31:39;3.35;87.86
74968;SHT30;63523;51.880;12.630;2023-12-07T10:34:05;3.48;87.39
74968;SHT30;63523;51.880;12.630;2023-12-07T10:36:31;3.50;87.31
74968;SHT30;63523;51.880;12.630;2023-12-07T10:38:58;3.51;87.29
74968;SHT30;63523;51.880;12.630;2023-12-07T10:41:24;3.55;87.40
74968;SHT30;63523;51.880;12.630;2023-12-07T10:43:54;3.58;87.35
74968;SHT30;63523;51.880;12.630;2023-12-07T10:46:22;3.61;87.35
74968;SHT30;63523;51.880;12.630;2023-12-07T10:48:51;3.63;87.14
74968;SHT30;63523;51.880;12.630;2023-12-07T10:51:29;3.63;87.21
74968;SHT30;63523;51.880;12.630;2023-12-07T10:53:56;3.62;87.06
74968;SHT30;63523;51.880;12.630;2023-12-07T10:56:28;3.68;87.05
74968;SHT30;63523;51.880;12.630;2023-12-07T10:58:55;3.70;86.95
74968;SHT30;63523;51.880;12.630;2023-12-07T11:01:21;3.73;86.68
74968;SHT30;63523;51.880;12.630;2023-12-07T11:03:49;3.73;86.53
74968;SHT30;63523;51.880;12.630;2023-12-07T11:06:16;3.69;86.28
74968;SHT30;63523;51.880;12.630;2023-12-07T11:08:45;3.66;86.40
74968;SHT30;63523;51.880;12.630;2023-12-07T11:11:23;3.72;86.23
74968;SHT30;63523;51.880;12.630;2023-12-07T11:14:02;3.70;86.44
74968;SHT30;63523;51.880;12.630;2023-12-07T11:16:40;3.73;86.68
74968;SHT30;63523;51.880;12.630;2023-12-07T11:21:51;3.85;86.88
74968;SHT30;63523;51.880;12.630;2023-12-07T11:24:16;3.90;86.67
74968;SHT30;63523;51.880;12.630;2023-12-07T11:26:42;3.97;86.19
74968;SHT30;63523;51.880;12.630;2023-12-07T11:29:07;3.97;86.38
74968;SHT30;63523;51.880;12.630;2023-12-07T11:31:33;4.01;86.40
74968;SHT30;63523;51.880;12.630;2023-12-07T11:34:05;4.00;85.71
74968;SHT30;63523;51.880;12.630;2023-12-07T11:36:31;4.03;86.46
74968;SHT30;63523;51.880;12.630;2023-12-07T11:41:35;4.10;85.88
74968;SHT30;63523;51.880;12.630;2023-12-07T11:44:05;4.11;86.07
74968;SHT30;63523;51.880;12.630;2023-12-07T11:46:30;4.14;85.43
74968;SHT30;63523;51.880;12.630;2023-12-07T11:48:55;4.14;85.90
74968;SHT30;63523;51.880;12.630;2023-12-07T11:51:22;4.14;85.89
74968;SHT30;63523;51.880;12.630;2023-12-07T11:53:47;4.15;85.51
74968;SHT30;63523;51.880;12.630;2023-12-07T11:56:14;4.18;85.88
74968;SHT30;63523;51.880;12.630;2023-12-07T11:58:44;4.20;85.72
74968;SHT30;63523;51.880;12.630;2023-12-07T12:01:09;4.20;85.47
74968;SHT30;63523;51.880;12.630;2023-12-07T12:03:34;4.18;85.43
74968;SHT30;63523;51.880;12.630;2023-12-07T12:06:04;4.28;85.29
74968;SHT30;63523;51.880;12.630;2023-12-07T12:08:30;4.27;84.77
74968;SHT30;63523;51.880;12.630;2023-12-07T12:10:56;4.27;85.23
74968;SHT30;63523;51.880;12.630;2023-12-07T12:13:32;4.28;84.81
74968;SHT30;63523;51.880;12.630;2023-12-07T12:15:58;4.32;84.44
74968;SHT30;63523;51.880;12.630;2023-12-07T12:18:24;4.28;84.35
74968;SHT30;63523;51.880;12.630;2023-12-07T12:20:51;4.25;84.27
74968;SHT30;63523;51.880;12.630;2023-12-07T12:23:16;4.18;84.62
74968;SHT30;63523;51.880;12.630;2023-12-07T12:25:42;4.14;84.97
74968;SHT30;63523;51.880;12.630;2023-12-07T12:28:08;4.11;85.39
74968;SHT30;63523;51.880;12.630;2023-12-07T12:30:34;4.07;85.33
74968;SHT30;63523;51.880;12.630;2023-12-07T12:32:59;4.10;85.24
74968;SHT30;63523;51.880;12.630;2023-12-07T12:35:25;4.13;85.69
74968;SHT30;63523;51.880;12.630;2023-12-07T12:37:50;4.11;85.54
74968;SHT30;63523;51.880;12.630;2023-12-07T12:40:17;4.11;85.61
74968;SHT30;63523;51.880;12.630;2023-12-07T12:42:50;4.13;85.54
74968;SHT30;63523;51.880;12.630;2023-12-07T12:45:16;4.13;85.54
74968;SHT30;63523;51.880;12.630;2023-12-07T12:47:44;4.11;85.59
74968;SHT30;63523;51.880;12.630;2023-12-07T12:50:10;4.13;85.89
74968;SHT30;63523;51.880;12.630;2023-12-07T12:52:36;4.11;85.99
74968;SHT30;63523;51.880;12.630;2023-12-07T12:55:07;4.11;85.62
74968;SHT30;63523;51.880;12.630;2023-12-07T12:57:33;4.13;85.83
74968;SHT30;63523;51.880;12.630;2023-12-07T13:00:00;4.11;85.71
74968;SHT30;63523;51.880;12.630;2023-12-07T13:02:26;4.14;85.76
74968;SHT30;63523;51.880;12.630;2023-12-07T13:04:51;4.13;85.71
74968;SHT30;63523;51.880;12.630;2023-12-07T13:07:17;4.13;86.07
74968;SHT30;63523;51.880;12.630;2023-12-07T13:09:42;4.13;85.66
74968;SHT30;63523;51.880;12.630;2023-12-07T13:12:08;4.14;85.89
74968;SHT30;63523;51.880;12.630;2023-12-07T13:14:34;4.15;85.89
74968;SHT30;63523;51.880;12.630;2023-12-07T13:17:01;4.28;85.92
74968;SHT30;63523;51.880;12.630;2023-12-07T13:19:26;4.21;85.19
74968;SHT30;63523;51.880;12.630;2023-12-07T13:21:51;4.24;85.03
74968;SHT30;63523;51.880;12.630;2023-12-07T13:24:17;4.22;85.29
74968;SHT30;63523;51.880;12.630;2023-12-07T13:26:42;4.21;85.22
74968;SHT30;63523;51.880;12.630;2023-12-07T13:29:08;4.20;85.32
74968;SHT30;63523;51.880;12.630;2023-12-07T13:31:33;4.18;85.36
74968;SHT30;63523;51.880;12.630;2023-12-07T13:34:00;4.15;85.58
74968;SHT30;63523;51.880;12.630;2023-12-07T13:36:25;4.13;85.61
74968;SHT30;63523;51.880;12.630;2023-12-07T13:38:53;4.13;86.00
74968;SHT30;63523;51.880;12.630;2023-12-07T13:41:18;4.15;85.69
74968;SHT30;63523;51.880;12.630;2023-12-07T13:43:44;4.13;85.87
74968;SHT30;63523;51.880;12.630;2023-12-07T13:46:09;4.14;85.92
74968;SHT30;63523;51.880;12.630;2023-12-07T13:48:35;4.21;85.61
74968;SHT30;63523;51.880;12.630;2023-12-07T13:51:01;4.35;85.52
74968;SHT30;63523;51.880;12.630;2023-12-07T13:53:27;4.38;83.73
74968;SHT30;63523;51.880;12.630;2023-12-07T13:55:52;4.34;83.97
74968;SHT30;63523;51.880;12.630;2023-12-07T13:58:18;4.35;84.49
74968;SHT30;63523;51.880;12.630;2023-12-07T14:00:43;4.24;84.34
74968;SHT30;63523;51.880;12.630;2023-12-07T14:03:12;4.20;84.80
74968;SHT30;63523;51.880;12.630;2023-12-07T14:05:40;4.24;84.67
74968;SHT30;63523;51.880;12.630;2023-12-07T14:08:06;4.22;84.30
74968;SHT30;63523;51.880;12.630;2023-12-07T14:10:32;4.18;84.62
74968;SHT30;63523;51.880;12.630;2023-12-07T14:12:57;4.13;84.71
74968;SHT30;63523;51.880;12.630;2023-12-07T14:15:22;4.18;85.30
74968;SHT30;63523;51.880;12.630;2023-12-07T14:17:48;4.18;84.29
74968;SHT30;63523;51.880;12.630;2023-12-07T14:20:13;4.18;84.80
74968;SHT30;63523;51.880;12.630;2023-12-07T14:22:39;4.07;84.87
74968;SHT30;63523;51.880;12.630;2023-12-07T14:25:06;4.07;85.05
74968;SHT30;63523;51.880;12.630;2023-12-07T14:27:31;4.06;84.91
74968;SHT30;63523;51.880;12.630;2023-12-07T14:29:56;4.06;85.20
74968;SHT30;63523;51.880;12.630;2023-12-07T14:32:22;4.03;85.52
74968;SHT30;63523;51.880;12.630;2023-12-07T14:34:47;4.04;85.70
74968;SHT30;63523;51.880;12.630;2023-12-07T14:37:12;4.11;85.82
74968;SHT30;63523;51.880;12.630;2023-12-07T14:39:39;4.13;85.18
74968;SHT30;63523;51.880;12.630;2023-12-07T14:42:06;4.11;85.26
74968;SHT30;63523;51.880;12.630;2023-12-07T14:44:32;4.06;84.64
74968;SHT30;63523;51.880;12.630;2023-12-07T14:46:58;3.98;85.07
74968;SHT30;63523;51.880;12.630;2023-12-07T14:49:24;3.90;85.66
74968;SHT30;63523;51.880;12.630;2023-12-07T14:51:49;3.93;85.74
74968;SHT30;63523;51.880;12.630;2023-12-07T14:54:15;3.94;85.43
74968;SHT30;63523;51.880;12.630;2023-12-07T14:56:41;3.90;85.66
74968;SHT30;63523;51.880;12.630;2023-12-07T14:59:08;3.86;85.82
74968;SHT30;63523;51.880;12.630;2023-12-07T15:01:36;3.82;86.05
74968;SHT30;63523;51.880;12.630;2023-12-07T15:04:01;3.86;86.01
74968;SHT30;63523;51.880;12.630;2023-12-07T15:06:28;3.82;86.10
74968;SHT30;63523;51.880;12.630;2023-12-07T15:08:53;3.79;86.27
74968;SHT30;63523;51.880;12.630;2023-12-07T15:11:19;3.79;86.52
74968;SHT30;63523;51.880;12.630;2023-12-07T15:13:44;3.72;86.30
74968;SHT30;63523;51.880;12.630;2023-12-07T15:16:10;3.63;86.22
74968;SHT30;63523;51.880;12.630;2023-12-07T15:18:35;3.58;86.44
74968;SHT30;63523;51.880;12.630;2023-12-07T15:21:02;3.51;86.61
74968;SHT30;63523;51.880;12.630;2023-12-07T15:23:28;3.48;86.64
74968;SHT30;63523;51.880;12.630;2023-12-07T15:25:53;3.44;86.78
74968;SHT30;63523;51.880;12.630;2023-12-07T15:28:20;3.41;86.89
74968;SHT30;63523;51.880;12.630;2023-12-07T15:30:45;3.34;86.88
74968;SHT30;63523;51.880;12.630;2023-12-07T15:33:10;3.27;86.79
74968;SHT30;63523;51.880;12.630;2023-12-07T15:35:36;3.20;86.74
74968;SHT30;63523;51.880;12.630;2023-12-07T15:38:01;3.14;86.86